AirNav   Bose Proflight and A20 aviation headeets
 
 1215 users online  

MU61 Belton Regional Medical Center Heliport
Belton, Missouri, USA

GOING TO BELTON?


FAA INFORMATION EFFECTIVE 31 JANUARY 2019

Location

FAA Identifier: MU61
Lat/Long: 38-48-59.9300N / 094-30-12.8900W
38-48.998833N / 094-30.214833W
38.8166472 / -94.5035806
(estimated)
Elevation: 1070 ft. / 326 m (estimated)
Variation: 05E (1980)
From city: 5 miles E of BELTON, MO
Time zone: UTC -6 (UTC -5 during Daylight Saving Time)
Zip code: 64012

Heliport Operations

Heliport use: Private use, MEDICAL.
Activation date: 10/1986
Control tower: no
ARTCC: KANSAS CITY CENTER
FSS: COLUMBIA FLIGHT SERVICE STATION
Attendance: UNATNDD
Wind indicator: yes
Segmented circle: no
Lights: FOR PERIMETER LGTS CALL 816-348-1200.

Heliport Communications

WX ASOS at LXT (11 nm NE): 124.175 (816-347-9807)
WX ASOS at OJC (11 nm W): PHONE 913-780-6969
WX AWOS-3PT at LRY (14 nm SE): 119.975 (816-380-5936)
WX ASOS at IXD (18 nm W): 135.325 (913-780-6987)
WX ASOS at MKC (19 nm N): PHONE 816-329-2843

Nearby radio navigation aids

VOR radial/distance  VOR name  Freq  Var
ANXr219/24.2NAPOLEON VORTAC114.0007E
MCIr154/30.1KANSAS CITY VORTAC113.2505E
BUMr352/32.7BUTLER VORTAC115.9007E

 
NDB name  Hdg/Dist  Freq  Var  ID
HERBB067/11.642004EPK .--. -.-

Heliport Services

Runway Information

Helipad H1

Dimensions: 40 x 40 ft. / 12 x 12 m
Surface: concrete
Runway edge lights: PERIMETER LGTS.
Latitude: 38-48.998833N
Longitude: 094-30.214833W
Elevation: 1070.0 ft.
Traffic pattern: leftleft

Heliport Ownership and Management from official FAA records

Ownership: Privately-owned
Owner: BELTON REGIONAL MEDICAL CENTER
17065 SOUTH 71 HWY
BELTON, MO 64012
Phone 816-348-1200
Manager: BERNIE SWANNER
17065 SOUTH 71 HWY
BELTON, MO 64012
Phone 816-348-1200

Additional Remarks

FOR CD CTC KANSAS CITY APCH AT 816-329-2710.

Instrument Procedures

There are no published instrument procedures at MU61.

Some nearby airports with instrument procedures:

KLXT - Lee's Summit Municipal Airport (11 nm NE)
KOJC - Johnson County Executive Airport (11 nm W)
KLRY - Lawrence Smith Memorial Airport (14 nm SE)
3GV - East Kansas City Airport (18 nm NE)
KIXD - New Century AirCenter Airport (18 nm W)
KMKC - Charles B Wheeler Downtown Airport (19 nm N)
 
Loc | Ops | Rwys | IFR | FBO | Links
Com | Nav | Svcs | Stats | Notes

Kansas City Aviation Department
 
Area around MU61 (Belton Regional Medical Center Heliport)
 
Road maps at: MapQuest Bing Google
 
Aerial photo
No photo
 
Sectional chart

 
Airport distance calculator
Flying to Belton Regional Medical Center Heliport? Find the distance to fly.

From to MU61

Sunrise and sunset
Times for 22-Feb-2019
 Local
(UTC-6)
 Zulu
(UTC)
Morning civil twilight06:3412:34
Sunrise07:0113:01
Sunset18:0200:02
Evening civil twilight18:2900:29

Current date and time
Zulu (UTC)  22-Feb-2019 21:41:38
Local (UTC-6)  22-Feb-2019 15:41:38
 
METAR
KOJC 
11nm W 
222053Z 10008G18KT 8SM OVC018 03/M01 A3008 RMK AO2 SLP197 T00281011 56029
KLXT 
11nm NE 
222053Z AUTO 10012KT 9SM OVC020 03/M01 A3011 RMK AO2 SLP206 T00281011 58028
KLRY 
14nm SE 
222115Z AUTO 10006KT 2 1/2SM BR SCT007 BKN012 OVC022 03/02 A3013 RMK AO2
KIXD 
18nm W 
222053Z 10007KT 8SM OVC017 03/M01 A3009 RMK AO2 SLP196 T00281011 56032
KMKC 
19nm N 
222054Z 07008KT 9SM OVC022 04/M03 A3011 RMK AO2 SLP201 T00391033 56030
TAF
KIXD 
18nm W 
221732Z 2218/2318 11012KT P6SM BKN020 FM222100 11012KT P6SM -DZ OVC010 FM222300 11010KT 5SM -DZ BR OVC005 FM230300 11008KT 2SM -RA BR OVC004 FM231200 09010KT 2SM -DZ BR OVC003
KMKC 
19nm N 
221732Z 2218/2318 11012KT P6SM BKN030 FM222100 11012KT P6SM -DZ OVC010 FM230000 11010KT 5SM -DZ BR OVC008 FM230300 11008KT 2SM -RA BR OVC004 FM231200 09010KT 2SM -DZ BR OVC003
NOTAMs
Click for the latest NOTAMs
NOTAMs are issued by the DoD/FAA and will open in a separate window not controlled by AirNav.

 

 
 

Would you like to see your business listed on this page?

 If your business provides an interesting product or service to pilots, flight crews, aircraft, or users of the Belton Regional Medical Center Heliport, you should consider listing it here.  To start the listing process, click on the button below
 
Add a business
 

Other Pages about Belton Regional Medical Center Heliport

Update a link
 
Copyright © AirNav, LLC. All rights reserved. Privacy Policy  Contact